Time,TemperatureF,DewpointF,PressureIn,WindDirection,WindDirectionDegrees,WindSpeedMPH,WindSpeedGustMPH,Humidity,HourlyPrecipIn,Conditions,Clouds,dailyrainin,SoftwareType,DateUTC
2013-07-23 00:10:00,78.3,76.4,29.97,South,180,0.0,-999.0,94,-99.99,,,0.00,Acu-Link.com,2013-07-23 04:10:00,
2013-07-23 00:25:00,77.7,76.5,29.96,West,270,0.0,-999.0,96,-99.99,,,0.00,Acu-Link.com,2013-07-23 04:25:00,
2013-07-23 00:40:00,77.5,76.3,29.96,WSW,247,0.0,-999.0,96,-99.99,,,0.00,Acu-Link.com,2013-07-23 04:40:00,
2013-07-23 00:55:00,77.7,76.5,29.95,West,270,0.0,-999.0,96,-99.99,,,0.00,Acu-Link.com,2013-07-23 04:55:00,
2013-07-23 01:11:00,77.7,76.8,29.94,South,180,0.0,-999.0,97,-99.99,,,0.00,Acu-Link.com,2013-07-23 05:11:00,
2013-07-23 01:26:00,77.9,76.7,29.94,SSE,157,0.0,-999.0,96,-99.99,,,0.00,Acu-Link.com,2013-07-23 05:26:00,
2013-07-23 01:41:00,77.5,76.3,29.93,SSW,202,0.0,-999.0,96,-99.99,,,0.00,Acu-Link.com,2013-07-23 05:41:00,
2013-07-23 01:56:00,77.4,76.4,29.93,South,180,0.0,-999.0,97,-99.99,,,0.00,Acu-Link.com,2013-07-23 05:56:00,
2013-07-23 02:12:00,77.4,76.4,29.93,WSW,247,0.0,-999.0,97,-99.99,,,0.00,Acu-Link.com,2013-07-23 06:12:00,
2013-07-23 02:27:00,77.0,76.4,29.93,SW,225,0.0,-999.0,98,-99.99,,,0.00,Acu-Link.com,2013-07-23 06:27:00,
2013-07-23 02:42:00,77.0,76.4,29.93,SW,225,0.0,-999.0,98,-99.99,,,0.00,Acu-Link.com,2013-07-23 06:42:00,
2013-07-23 02:57:00,77.0,76.7,29.93,South,180,0.0,-999.0,99,-99.99,,,0.00,Acu-Link.com,2013-07-23 06:57:00,
2013-07-23 03:12:00,77.4,77.1,29.92,SSE,157,2.2,-999.0,99,-99.99,,,0.00,Acu-Link.com,2013-07-23 07:12:00,
2013-07-23 03:28:00,77.9,77.3,29.92,SW,225,1.6,-999.0,98,-99.99,,,0.00,Acu-Link.com,2013-07-23 07:28:00,
2013-07-23 03:43:00,78.1,77.2,29.92,SSE,157,0.0,-999.0,97,-99.99,,,0.00,Acu-Link.com,2013-07-23 07:43:00,
2013-07-23 03:58:00,77.9,77.0,29.92,ENE,67,0.0,-999.0,97,-99.99,,,0.00,Acu-Link.com,2013-07-23 07:58:00,
2013-07-23 04:14:00,78.1,77.2,29.92,South,180,0.0,-999.0,97,-99.99,,,0.00,Acu-Link.com,2013-07-23 08:14:00,
2013-07-23 04:29:00,78.1,77.2,29.92,NNE,22,1.1,-999.0,97,-99.99,,,0.00,Acu-Link.com,2013-07-23 08:29:00,
2013-07-23 04:44:00,78.1,77.2,29.92,South,180,2.2,-999.0,97,-99.99,,,0.00,Acu-Link.com,2013-07-23 08:44:00,
2013-07-23 04:59:00,77.7,76.8,29.92,South,180,0.0,-999.0,97,-99.99,,,0.00,Acu-Link.com,2013-07-23 08:59:00,
2013-07-23 05:14:00,77.5,76.6,29.92,SSE,157,0.0,-999.0,97,-99.99,,,0.00,Acu-Link.com,2013-07-23 09:14:00,
2013-07-23 05:29:00,77.2,76.6,29.93,South,180,0.0,-999.0,98,-99.99,,,0.00,Acu-Link.com,2013-07-23 09:29:00,
2013-07-23 05:44:00,77.2,76.6,29.93,South,180,0.0,-999.0,98,-99.99,,,0.00,Acu-Link.com,2013-07-23 09:44:00,
2013-07-23 05:59:00,77.0,76.7,29.94,SSE,157,0.0,-999.0,99,-99.99,,,0.00,Acu-Link.com,2013-07-23 09:59:00,
2013-07-23 06:14:00,77.0,76.7,29.94,South,180,0.0,-999.0,99,-99.99,,,0.00,Acu-Link.com,2013-07-23 10:14:00,
2013-07-23 06:30:00,77.2,76.9,29.95,South,180,0.0,-999.0,99,-99.99,,,0.00,Acu-Link.com,2013-07-23 10:30:00,
2013-07-23 06:45:00,77.9,77.3,29.95,NW,315,0.0,-999.0,98,-99.99,,,0.00,Acu-Link.com,2013-07-23 10:45:00,
2013-07-23 07:00:00,79.3,77.5,29.96,ESE,112,1.1,-999.0,94,-99.99,,,0.00,Acu-Link.com,2013-07-23 11:00:00,
2013-07-23 07:15:00,81.0,78.1,29.96,East,90,0.0,-999.0,91,-99.99,,,0.00,Acu-Link.com,2013-07-23 11:15:00,
2013-07-23 07:30:00,82.4,78.5,29.96,SSE,157,0.0,-999.0,88,-99.99,,,0.00,Acu-Link.com,2013-07-23 11:30:00,
2013-07-23 07:46:00,84.9,79.5,29.97,West,270,1.1,-999.0,84,-99.99,,,0.00,Acu-Link.com,2013-07-23 11:46:00,
2013-07-23 08:01:00,85.8,79.3,29.97,SSE,157,6.7,-999.0,81,-99.99,,,0.00,Acu-Link.com,2013-07-23 12:01:00,
2013-07-23 08:16:00,84.0,79.0,29.97,East,90,3.8,-999.0,85,-99.99,,,0.00,Acu-Link.com,2013-07-23 12:16:00,
2013-07-23 08:31:00,84.7,78.2,29.97,SSE,157,8.3,-999.0,81,-99.99,,,0.00,Acu-Link.com,2013-07-23 12:31:00,
2013-07-23 08:47:00,85.1,78.6,29.97,ESE,112,5.8,-999.0,81,-99.99,,,0.00,Acu-Link.com,2013-07-23 12:47:00,
2013-07-23 09:02:00,85.5,78.6,29.98,ESE,112,4.7,-999.0,80,-99.99,,,0.00,Acu-Link.com,2013-07-23 13:02:00,
2013-07-23 09:17:00,85.1,78.2,29.98,NE,45,5.1,-999.0,80,-99.99,,,0.00,Acu-Link.com,2013-07-23 13:17:00,
2013-07-23 09:32:00,86.0,77.9,29.98,SE,135,6.3,-999.0,77,-99.99,,,0.00,Acu-Link.com,2013-07-23 13:32:00,
2013-07-23 09:47:00,87.4,76.9,29.97,ENE,67,6.3,-999.0,71,-99.99,,,0.00,Acu-Link.com,2013-07-23 13:47:00,
2013-07-23 10:03:00,87.8,75.9,29.97,SSE,157,5.8,-999.0,68,-99.99,,,0.00,Acu-Link.com,2013-07-23 14:03:00,
2013-07-23 10:18:00,87.1,77.8,29.97,SSE,157,6.3,-999.0,74,-99.99,,,0.00,Acu-Link.com,2013-07-23 14:18:00,
2013-07-23 10:33:00,87.8,78.0,29.96,ESE,112,6.7,-999.0,73,-99.99,,,0.00,Acu-Link.com,2013-07-23 14:33:00,
2013-07-23 10:48:00,88.2,78.0,29.96,ESE,112,8.3,-999.0,72,-99.99,,,0.00,Acu-Link.com,2013-07-23 14:48:00,
2013-07-23 11:03:00,89.1,78.0,29.96,ENE,67,11.0,-999.0,70,-99.99,,,0.00,Acu-Link.com,2013-07-23 15:03:00,
2013-07-23 11:19:00,88.7,77.6,29.96,East,90,9.8,-999.0,70,-99.99,,,0.00,Acu-Link.com,2013-07-23 15:19:00,
2013-07-23 11:34:00,88.9,77.8,29.95,ESE,112,9.8,-999.0,70,-99.99,,,0.00,Acu-Link.com,2013-07-23 15:34:00,
2013-07-23 11:49:00,90.0,78.4,29.95,NNE,22,13.4,-999.0,69,-99.99,,,0.00,Acu-Link.com,2013-07-23 15:49:00,
2013-07-23 12:04:00,89.8,77.3,29.95,ENE,67,8.3,-999.0,67,-99.99,,,0.00,Acu-Link.com,2013-07-23 16:04:00,
2013-07-23 12:19:00,89.8,77.3,29.95,East,90,6.7,-999.0,67,-99.99,,,0.00,Acu-Link.com,2013-07-23 16:19:00,
2013-07-23 12:35:00,90.1,76.8,29.94,ESE,112,6.3,-999.0,65,-99.99,,,0.00,Acu-Link.com,2013-07-23 16:35:00,
2013-07-23 12:50:00,89.4,77.0,29.94,East,90,7.8,-999.0,67,-99.99,,,0.00,Acu-Link.com,2013-07-23 16:50:00,
2013-07-23 13:05:00,90.0,77.9,29.94,ENE,67,5.8,-999.0,68,-99.99,,,0.00,Acu-Link.com,2013-07-23 17:05:00,
2013-07-23 13:20:00,90.0,77.9,29.94,East,90,9.8,-999.0,68,-99.99,,,0.00,Acu-Link.com,2013-07-23 17:20:00,
2013-07-23 13:36:00,89.8,77.3,29.93,ESE,112,7.8,-999.0,67,-99.99,,,0.00,Acu-Link.com,2013-07-23 17:36:00,
2013-07-23 13:51:00,89.8,78.2,29.92,ENE,67,9.8,-999.0,69,-99.99,,,0.00,Acu-Link.com,2013-07-23 17:51:00,
2013-07-23 14:06:00,89.6,77.6,29.92,ESE,112,9.4,-999.0,68,-99.99,,,0.00,Acu-Link.com,2013-07-23 18:06:00,
2013-07-23 14:52:00,89.6,77.6,29.90,East,90,5.1,-999.0,68,-99.99,,,0.00,Acu-Link.com,2013-07-23 18:52:00,
2013-07-23 15:07:00,90.0,77.0,29.90,East,90,13.0,-999.0,66,-99.99,,,0.00,Acu-Link.com,2013-07-23 19:07:00,
2013-07-23 15:22:00,90.1,77.2,29.89,ESE,112,6.7,-999.0,66,-99.99,,,0.00,Acu-Link.com,2013-07-23 19:22:00,
2013-07-23 15:37:00,89.2,78.1,29.89,ESE,112,8.9,-999.0,70,-99.99,,,0.00,Acu-Link.com,2013-07-23 19:37:00,
2013-07-23 15:52:00,88.7,77.2,29.89,ENE,67,8.3,-999.0,69,-99.99,,,0.00,Acu-Link.com,2013-07-23 19:52:00,
2013-07-23 16:08:00,88.3,77.3,29.88,East,90,11.0,-999.0,70,-99.99,,,0.00,Acu-Link.com,2013-07-23 20:08:00,
2013-07-23 16:23:00,88.5,77.9,29.88,East,90,9.4,-999.0,71,-99.99,,,0.00,Acu-Link.com,2013-07-23 20:23:00,
2013-07-23 16:38:00,88.0,77.4,29.88,East,90,10.3,-999.0,71,-99.99,,,0.00,Acu-Link.com,2013-07-23 20:38:00,
2013-07-23 16:53:00,88.2,77.1,29.88,NE,45,7.4,-999.0,70,-99.99,,,0.00,Acu-Link.com,2013-07-23 20:53:00,
2013-07-23 17:24:00,86.7,76.6,29.87,ESE,112,9.8,-999.0,72,-99.99,,,0.00,Acu-Link.com,2013-07-23 21:24:00,
2013-07-23 17:54:00,86.7,76.6,29.88,ESE,112,6.7,-999.0,72,-99.99,,,0.00,Acu-Link.com,2013-07-23 21:54:00,
2013-07-23 18:09:00,86.0,76.3,29.88,East,90,6.7,-999.0,73,-99.99,,,0.00,Acu-Link.com,2013-07-23 22:09:00,
2013-07-23 18:25:00,85.3,76.4,29.88,NE,45,4.7,-999.0,75,-99.99,,,0.00,Acu-Link.com,2013-07-23 22:25:00,
2013-07-23 18:40:00,84.7,76.3,29.89,East,90,5.8,-999.0,76,-99.99,,,0.00,Acu-Link.com,2013-07-23 22:40:00,
2013-07-23 18:55:00,84.2,76.2,29.89,East,90,6.7,-999.0,77,-99.99,,,0.00,Acu-Link.com,2013-07-23 22:55:00,
2013-07-23 19:10:00,84.0,75.6,29.89,ESE,112,6.3,-999.0,76,-99.99,,,0.00,Acu-Link.com,2013-07-23 23:10:00,
2013-07-23 19:25:00,83.8,75.4,29.89,ESE,112,4.7,-999.0,76,-99.99,,,0.00,Acu-Link.com,2013-07-23 23:25:00,
2013-07-23 19:41:00,83.7,75.3,29.90,ESE,112,5.8,-999.0,76,-99.99,,,0.00,Acu-Link.com,2013-07-23 23:41:00,
2013-07-23 19:56:00,83.5,75.5,29.90,SE,135,5.8,-999.0,77,-99.99,,,0.00,Acu-Link.com,2013-07-23 23:56:00,
2013-07-23 20:11:00,83.3,75.7,29.90,ESE,112,4.3,-999.0,78,-99.99,,,0.00,Acu-Link.com,2013-07-24 00:11:00,
2013-07-23 20:26:00,83.1,75.5,29.90,ESE,112,3.1,-999.0,78,-99.99,,,0.00,Acu-Link.com,2013-07-24 00:26:00,
2013-07-23 20:41:00,83.1,75.5,29.91,ESE,112,4.3,-999.0,78,-99.99,,,0.00,Acu-Link.com,2013-07-24 00:41:00,
2013-07-23 20:57:00,82.9,75.7,29.91,ESE,112,3.8,-999.0,79,-99.99,,,0.00,Acu-Link.com,2013-07-24 00:57:00,
2013-07-23 21:12:00,82.8,75.9,29.91,East,90,4.7,-999.0,80,-99.99,,,0.00,Acu-Link.com,2013-07-24 01:12:00,
2013-07-23 21:27:00,82.8,75.9,29.91,ESE,112,5.1,-999.0,80,-99.99,,,0.00,Acu-Link.com,2013-07-24 01:27:00,
2013-07-23 21:42:00,82.6,75.8,29.91,ESE,112,2.2,-999.0,80,-99.99,,,0.00,Acu-Link.com,2013-07-24 01:42:00,
2013-07-23 21:58:00,82.6,75.8,29.91,SSW,202,3.8,-999.0,80,-99.99,,,0.00,Acu-Link.com,2013-07-24 01:58:00,
2013-07-23 22:13:00,82.4,76.0,29.91,ESE,112,1.1,-999.0,81,-99.99,,,0.00,Acu-Link.com,2013-07-24 02:13:00,
2013-07-23 22:28:00,82.4,76.0,29.92,ESE,112,1.6,-999.0,81,-99.99,,,0.00,Acu-Link.com,2013-07-24 02:28:00,
2013-07-23 22:43:00,82.0,75.6,29.92,ESE,112,2.7,-999.0,81,-99.99,,,0.00,Acu-Link.com,2013-07-24 02:43:00,
2013-07-23 22:58:00,81.9,75.8,29.92,East,90,2.2,-999.0,82,-99.99,,,0.00,Acu-Link.com,2013-07-24 02:58:00,
2013-07-23 23:14:00,81.7,75.6,29.93,SE,135,2.7,-999.0,82,-99.99,,,0.00,Acu-Link.com,2013-07-24 03:14:00,
2013-07-23 23:29:00,81.7,76.0,29.93,East,90,4.3,-999.0,83,-99.99,,,0.00,Acu-Link.com,2013-07-24 03:29:00,
2013-07-23 23:44:00,81.5,75.8,29.92,NE,45,3.8,-999.0,83,-99.99,,,0.00,Acu-Link.com,2013-07-24 03:44:00,
2013-07-23 23:59:00,81.3,76.0,29.93,ESE,112,1.1,-999.0,84,-99.99,,,0.00,Acu-Link.com,2013-07-24 03:59:00,